BITO weather

Thorisos Airport
Thorisos, Southern Region, Iceland

Public forecast

Using degrees Celsius for public forecast. Weather courtesy of forecast.io.

METAR (pilot weather report)

Closest report is Vestmannaeyjar Airport, 67.2 nm (124.4 km) SW. Retrieved 2019/04/26 15:00 UTC (25 minutes ago):

BIVM 261500Z 11020KT 9000 FEW020 08/08 Q0998

TAF (pilot weather forecast)

Closest forecast is Akureyri Airport, 81.1 nm (150.2 km) NNE. Retrieved 2019/04/26 15:36 UTC (0 seconds ago):

TAF BIAR 261335Z 2615/2715 13014KT 9999 FEW020 BKN040 TX13/2715Z TN04/2706Z TEMPO 2615/2620 -RA BKN035